Time;durP1;ratioP1;P1;durP2;ratioP2;P2;SDS_P1;SDS_P2;PMS_P1;PMS_P2;Temp;Humidity;BMP_temperature;BMP_pressure;BME280_temperature;BME280_humidity;BME280_pressure;Samples;Min_cycle;Max_cycle;Signal;HPM_P1;HPM_P2
2022/04/16 00:01:55;;;;;;;24.47;14.17;;;;;;;;;;5080753;28;20123;-65
2022/04/16 00:04:22;;;;;;;21.53;14.80;;;;;;;;;;5111469;28;20126;-65
2022/04/16 00:06:48;;;;;;;25.27;14.20;;;;;;;;;;5093603;28;20097;-65
2022/04/16 00:09:14;;;;;;;24.30;14.83;;;;;;;;;;5111176;28;20039;-64
2022/04/16 00:11:40;;;;;;;26.73;15.13;;;;;;;;;;5096691;28;20046;-64
2022/04/16 00:14:06;;;;;;;26.63;14.37;;;;;;;;;;5072849;28;20052;-65
2022/04/16 00:16:32;;;;;;;24.73;15.70;;;;;;;;;;5101420;28;20075;-64
2022/04/16 00:18:59;;;;;;;31.43;16.70;;;;;;;;;;5111148;28;20497;-65
2022/04/16 00:21:25;;;;;;;27.40;16.17;;;;;;;;;;5110841;28;20100;-65
2022/04/16 00:23:52;;;;;;;29.83;16.43;;;;;;;;;;5092451;28;20054;-65
2022/04/16 00:26:20;;;;;;;29.23;16.27;;;;;;;;;;5110693;28;20046;-64
2022/04/16 00:28:46;;;;;;;31.03;16.17;;;;;;;;;;5111070;28;20047;-64
2022/04/16 00:31:14;;;;;;;27.57;17.23;;;;;;;;;;5110516;28;20081;-64
2022/04/16 00:33:40;;;;;;;33.07;16.33;;;;;;;;;;5093917;28;20079;-64
2022/04/16 00:36:06;;;;;;;28.17;17.70;;;;;;;;;;5090345;28;20048;-64
2022/04/16 00:38:32;;;;;;;31.23;17.30;;;;;;;;;;5090295;28;20048;-65
2022/04/16 00:41:00;;;;;;;31.47;19.13;;;;;;;;;;5089966;28;20051;-65
2022/04/16 00:43:29;;;;;;;28.53;16.20;;;;;;;;;;5089958;28;20127;-65
2022/04/16 00:45:56;;;;;;;35.43;18.33;;;;;;;;;;5090093;28;20052;-65
2022/04/16 00:48:23;;;;;;;30.03;17.00;;;;;;;;;;5090028;28;20105;-65
2022/04/16 00:50:50;;;;;;;36.90;19.20;;;;;;;;;;5089692;28;20106;-65
2022/04/16 00:53:16;;;;;;;34.53;18.37;;;;;;;;;;5089704;28;20040;-64
2022/04/16 00:55:42;;;;;;;36.43;18.80;;;;;;;;;;5090242;28;20047;-64
2022/04/16 00:58:08;;;;;;;39.93;19.60;;;;;;;;;;5089798;28;20739;-64
2022/04/16 01:00:34;;;;;;;34.23;19.67;;;;;;;;;;5090175;28;20036;-64
2022/04/16 01:03:01;;;;;;;38.23;18.53;;;;;;;;;;5071855;28;20048;-65
2022/04/16 01:05:27;;;;;;;33.10;18.67;;;;;;;;;;5089468;28;20398;-64
2022/04/16 01:07:54;;;;;;;38.90;19.70;;;;;;;;;;5090025;28;20099;-65
2022/04/16 01:10:24;;;;;;;38.77;19.10;;;;;;;;;;5089937;28;20456;-65
2022/04/16 01:12:50;;;;;;;40.57;20.73;;;;;;;;;;5071669;28;20889;-64
2022/04/16 01:15:17;;;;;;;39.37;19.93;;;;;;;;;;5089159;28;20094;-65
2022/04/16 01:17:43;;;;;;;40.83;21.03;;;;;;;;;;5089307;28;20051;-65
2022/04/16 01:20:10;;;;;;;43.93;22.73;;;;;;;;;;5094651;28;20046;-64
2022/04/16 01:22:36;;;;;;;45.40;23.23;;;;;;;;;;5102416;28;20504;-64
2022/04/16 01:25:02;;;;;;;50.57;23.97;;;;;;;;;;5089689;28;20043;-64
2022/04/16 01:27:28;;;;;;;51.83;24.03;;;;;;;;;;5088953;28;20076;-64
2022/04/16 01:29:55;;;;;;;49.23;22.73;;;;;;;;;;5090142;28;20071;-64
2022/04/16 01:32:23;;;;;;;36.97;19.93;;;;;;;;;;5109764;28;20673;-65
2022/04/16 01:34:49;;;;;;;47.17;22.57;;;;;;;;;;5109600;28;20059;-64
2022/04/16 01:37:15;;;;;;;54.37;23.67;;;;;;;;;;5109154;28;20100;-64
2022/04/16 01:39:41;;;;;;;54.77;24.27;;;;;;;;;;5109813;28;20044;-64
2022/04/16 01:42:07;;;;;;;54.70;24.77;;;;;;;;;;5109231;28;20058;-65
2022/04/16 01:44:34;;;;;;;59.27;27.00;;;;;;;;;;5091308;28;20458;-64
2022/04/16 01:47:00;;;;;;;54.13;27.23;;;;;;;;;;5109702;28;20477;-65
2022/04/16 01:49:26;;;;;;;64.97;29.03;;;;;;;;;;5109115;28;20055;-64
2022/04/16 01:51:54;;;;;;;59.97;28.73;;;;;;;;;;5088613;28;20135;-65
2022/04/16 01:54:20;;;;;;;65.97;29.97;;;;;;;;;;5107716;28;20047;-65
2022/04/16 01:56:46;;;;;;;58.87;28.00;;;;;;;;;;5109123;28;20731;-64
2022/04/16 01:59:12;;;;;;;56.00;28.70;;;;;;;;;;5109305;28;20046;-64
2022/04/16 02:01:38;;;;;;;65.63;29.77;;;;;;;;;;5108217;28;20109;-64
2022/04/16 02:04:04;;;;;;;65.87;30.63;;;;;;;;;;5091095;28;20058;-64
2022/04/16 02:06:30;;;;;;;53.83;26.53;;;;;;;;;;5109454;28;20054;-64
2022/04/16 02:08:56;;;;;;;57.63;25.97;;;;;;;;;;5109304;28;20047;-64
2022/04/16 02:11:22;;;;;;;49.40;25.57;;;;;;;;;;5109206;28;20093;-64
2022/04/16 02:13:48;;;;;;;63.33;28.03;;;;;;;;;;5109324;28;20084;-64
2022/04/16 02:16:15;;;;;;;52.63;25.27;;;;;;;;;;5108569;28;20497;-64
2022/04/16 02:18:41;;;;;;;53.97;26.43;;;;;;;;;;5109242;28;20087;-64
2022/04/16 02:21:10;;;;;;;50.37;24.97;;;;;;;;;;5095790;28;20086;-64
2022/04/16 02:23:36;;;;;;;59.57;26.07;;;;;;;;;;5089155;28;20052;-64
2022/04/16 02:26:06;;;;;;;53.17;24.73;;;;;;;;;;5088728;28;20050;-64
2022/04/16 02:28:32;;;;;;;55.00;25.83;;;;;;;;;;5088680;28;20044;-64
2022/04/16 02:30:58;;;;;;;54.20;25.97;;;;;;;;;;5088538;28;20101;-64
2022/04/16 02:33:24;;;;;;;55.17;26.10;;;;;;;;;;5088620;28;20059;-64
2022/04/16 02:35:51;;;;;;;48.17;24.30;;;;;;;;;;5088361;28;20108;-64
2022/04/16 02:38:18;;;;;;;56.00;27.80;;;;;;;;;;5088353;28;20048;-64
2022/04/16 02:40:44;;;;;;;57.63;26.17;;;;;;;;;;5088473;28;20067;-64
2022/04/16 02:43:10;;;;;;;58.10;27.13;;;;;;;;;;5088532;28;20155;-64
2022/04/16 02:48:20;;;;;;;66.63;29.23;;;;;;;;;;5088637;28;20091;-65
2022/04/16 02:50:46;;;;;;;66.23;28.37;;;;;;;;;;5089652;28;20082;-64
2022/04/16 02:53:12;;;;;;;69.03;28.93;;;;;;;;;;5108639;28;20429;-64
2022/04/16 02:55:38;;;;;;;59.40;27.37;;;;;;;;;;5109090;28;20164;-64
2022/04/16 02:58:04;;;;;;;64.23;28.80;;;;;;;;;;5108770;28;20160;-64
2022/04/16 03:00:30;;;;;;;69.57;27.97;;;;;;;;;;5108853;28;20062;-64
2022/04/16 03:02:56;;;;;;;64.57;28.67;;;;;;;;;;5109062;28;20050;-64
2022/04/16 03:05:22;;;;;;;68.03;28.90;;;;;;;;;;5108370;28;20047;-64
2022/04/16 03:07:50;;;;;;;66.37;27.80;;;;;;;;;;5108840;28;20433;-64
2022/04/16 03:10:16;;;;;;;59.33;26.03;;;;;;;;;;5108600;28;20047;-64
2022/04/16 03:12:44;;;;;;;59.60;27.60;;;;;;;;;;5108919;28;20043;-64
2022/04/16 03:17:55;;;;;;;57.17;25.67;;;;;;;;;;5112365;28;20047;-64
2022/04/16 03:20:21;;;;;;;55.77;25.50;;;;;;;;;;5112348;28;20065;-64
2022/04/16 03:22:47;;;;;;;65.23;28.40;;;;;;;;;;5111833;28;20622;-64
2022/04/16 03:25:13;;;;;;;66.40;26.43;;;;;;;;;;5112308;28;20126;-64
2022/04/16 03:27:39;;;;;;;63.30;27.47;;;;;;;;;;5112026;28;20135;-64
2022/04/16 03:30:06;;;;;;;88.23;29.43;;;;;;;;;;5112059;28;20126;-64
2022/04/16 03:32:32;;;;;;;79.97;27.60;;;;;;;;;;5112068;28;20096;-64
2022/04/16 03:34:58;;;;;;;126.13;29.63;;;;;;;;;;5111616;28;20417;-64
2022/04/16 03:37:27;;;;;;;109.77;28.73;;;;;;;;;;5111634;28;20058;-64
2022/04/16 03:39:53;;;;;;;198.40;34.20;;;;;;;;;;5112038;28;20444;-64
2022/04/16 03:42:19;;;;;;;175.60;31.93;;;;;;;;;;5093559;28;20048;-64
2022/04/16 03:44:46;;;;;;;127.23;31.80;;;;;;;;;;5099327;28;20059;-64
2022/04/16 03:47:11;;;;;;;101.17;30.10;;;;;;;;;;5091196;28;20693;-64
2022/04/16 03:49:38;;;;;;;99.67;35.03;;;;;;;;;;5091550;28;20086;-64
2022/04/16 03:52:05;;;;;;;66.27;31.23;;;;;;;;;;5091324;28;20075;-64
2022/04/16 04:00:01;;;;;;;94.13;34.13;;;;;;;;;;5090852;28;20044;-64
2022/04/16 04:02:30;;;;;;;73.80;31.07;;;;;;;;;;5091183;28;20047;-64
2022/04/16 04:04:56;;;;;;;92.57;36.87;;;;;;;;;;5090730;28;20036;-64
2022/04/16 04:07:23;;;;;;;94.83;37.33;;;;;;;;;;5090939;28;20410;-64
2022/04/16 04:09:49;;;;;;;98.70;37.03;;;;;;;;;;5090846;28;20052;-64
2022/04/16 04:12:16;;;;;;;77.97;32.40;;;;;;;;;;5091030;28;20498;-64
2022/04/16 04:14:42;;;;;;;94.20;35.90;;;;;;;;;;5101822;28;20071;-64
2022/04/16 04:17:08;;;;;;;123.93;42.70;;;;;;;;;;5111138;28;20522;-64
2022/04/16 04:19:44;;;;;;;113.17;43.57;;;;;;;;;;5111269;28;20090;-64
2022/04/16 04:22:11;;;;;;;114.97;43.30;;;;;;;;;;5110889;28;20103;-64
2022/04/16 04:24:38;;;;;;;94.73;42.43;;;;;;;;;;5110189;28;20414;-64
2022/04/16 04:27:04;;;;;;;103.00;42.47;;;;;;;;;;5111540;28;20046;-64
2022/04/16 04:29:30;;;;;;;116.70;46.97;;;;;;;;;;5110797;28;20043;-64
2022/04/16 04:31:57;;;;;;;114.13;44.10;;;;;;;;;;5111229;28;20493;-64
2022/04/16 04:34:24;;;;;;;98.00;42.60;;;;;;;;;;5111078;28;20099;-64
2022/04/16 04:36:50;;;;;;;94.83;42.80;;;;;;;;;;5110723;28;20132;-64
2022/04/16 04:39:16;;;;;;;106.97;42.73;;;;;;;;;;5110442;28;20047;-64
2022/04/16 04:41:43;;;;;;;115.33;45.20;;;;;;;;;;5110704;28;20096;-64
2022/04/16 04:44:12;;;;;;;104.53;43.27;;;;;;;;;;5106391;28;20631;-65
2022/04/16 04:46:38;;;;;;;88.83;40.17;;;;;;;;;;5110801;28;20765;-64
2022/04/16 04:49:07;;;;;;;95.50;42.50;;;;;;;;;;5110140;28;20147;-64
2022/04/16 04:51:34;;;;;;;95.20;42.03;;;;;;;;;;5110454;28;20039;-64
2022/04/16 04:54:00;;;;;;;93.70;39.97;;;;;;;;;;5092170;28;20048;-65
2022/04/16 04:56:26;;;;;;;83.40;38.63;;;;;;;;;;5089659;28;20385;-64
2022/04/16 04:58:52;;;;;;;58.17;31.77;;;;;;;;;;5089867;28;20494;-64
2022/04/16 05:01:19;;;;;;;61.30;31.13;;;;;;;;;;5107054;28;20039;-64
2022/04/16 05:03:45;;;;;;;53.40;29.10;;;;;;;;;;5110300;28;20044;-64
2022/04/16 05:06:11;;;;;;;57.00;31.27;;;;;;;;;;5107759;28;20091;-64
2022/04/16 05:08:37;;;;;;;57.13;31.33;;;;;;;;;;5109624;28;20122;-64
2022/04/16 05:11:03;;;;;;;54.70;29.63;;;;;;;;;;5109962;28;20493;-64
2022/04/16 05:13:29;;;;;;;53.70;28.00;;;;;;;;;;5109621;28;20043;-64
2022/04/16 05:15:55;;;;;;;49.53;29.20;;;;;;;;;;5085195;28;20040;-64
2022/04/16 05:18:21;;;;;;;48.50;28.23;;;;;;;;;;5099834;28;20417;-64
2022/04/16 05:20:46;;;;;;;40.50;24.20;;;;;;;;;;5105099;28;20044;-64
2022/04/16 05:23:12;;;;;;;39.30;23.40;;;;;;;;;;5089404;28;20063;-64
2022/04/16 05:25:38;;;;;;;42.83;25.43;;;;;;;;;;5089832;28;20128;-64
2022/04/16 05:28:05;;;;;;;41.37;23.90;;;;;;;;;;5070725;28;20044;-64
2022/04/16 05:30:38;;;;;;;36.60;23.20;;;;;;;;;;5089247;28;20047;-64
2022/04/16 05:33:16;;;;;;;40.38;22.88;;;;;;;;;;5071382;28;20130;-64
2022/04/16 05:35:42;;;;;;;37.93;24.20;;;;;;;;;;5089283;28;20072;-64
2022/04/16 05:38:08;;;;;;;34.13;22.17;;;;;;;;;;5088610;28;20077;-64
2022/04/16 05:40:34;;;;;;;32.43;21.40;;;;;;;;;;5089047;28;20513;-64
2022/04/16 05:43:00;;;;;;;33.50;21.10;;;;;;;;;;5088779;28;20040;-64
2022/04/16 05:45:26;;;;;;;31.27;20.47;;;;;;;;;;5070568;28;20656;-64
2022/04/16 05:47:52;;;;;;;36.03;21.70;;;;;;;;;;5088824;28;20044;-64
2022/04/16 05:50:18;;;;;;;32.70;20.07;;;;;;;;;;5088737;28;20047;-64
2022/04/16 05:52:44;;;;;;;31.43;19.63;;;;;;;;;;5088914;28;20374;-64
2022/04/16 05:55:11;;;;;;;31.63;19.13;;;;;;;;;;5088781;28;20405;-64
2022/04/16 05:57:37;;;;;;;30.50;19.57;;;;;;;;;;5088660;28;20044;-64
2022/04/16 06:00:03;;;;;;;34.07;20.20;;;;;;;;;;5088453;28;20113;-63
2022/04/16 06:02:30;;;;;;;23.97;16.83;;;;;;;;;;5088338;28;20500;-63
2022/04/16 06:04:56;;;;;;;27.13;18.37;;;;;;;;;;5071043;28;20051;-63
2022/04/16 06:07:22;;;;;;;24.57;16.77;;;;;;;;;;5088643;28;20375;-63
2022/04/16 06:09:48;;;;;;;26.90;18.27;;;;;;;;;;5088455;28;20047;-63
2022/04/16 06:12:14;;;;;;;24.50;16.93;;;;;;;;;;5088804;28;20051;-64
2022/04/16 06:14:40;;;;;;;23.63;16.07;;;;;;;;;;5087872;28;20040;-63
2022/04/16 06:17:06;;;;;;;23.60;15.10;;;;;;;;;;5088901;28;20036;-63
2022/04/16 06:19:32;;;;;;;22.67;14.53;;;;;;;;;;5089041;28;20378;-63
2022/04/16 06:21:58;;;;;;;23.17;14.83;;;;;;;;;;5088331;28;20048;-63
2022/04/16 06:24:24;;;;;;;23.37;14.80;;;;;;;;;;5088806;28;20052;-63
2022/04/16 06:26:50;;;;;;;24.47;15.40;;;;;;;;;;5088504;28;20039;-63
2022/04/16 06:29:16;;;;;;;22.63;15.87;;;;;;;;;;5093057;28;20683;-63
2022/04/16 06:31:43;;;;;;;24.13;15.50;;;;;;;;;;5088924;28;20052;-63
2022/04/16 06:34:09;;;;;;;27.13;16.93;;;;;;;;;;5087938;28;20109;-63
2022/04/16 06:36:35;;;;;;;23.20;15.53;;;;;;;;;;5088586;28;20056;-63
2022/04/16 06:39:01;;;;;;;26.10;16.67;;;;;;;;;;5088478;28;20131;-63
2022/04/16 06:41:27;;;;;;;27.73;16.13;;;;;;;;;;5087716;28;20404;-64
2022/04/16 06:43:53;;;;;;;22.77;15.53;;;;;;;;;;5088476;28;20040;-64
2022/04/16 06:46:19;;;;;;;23.53;14.30;;;;;;;;;;5087931;28;20040;-64
2022/04/16 06:48:45;;;;;;;24.87;16.20;;;;;;;;;;5089915;28;20105;-63
2022/04/16 06:51:11;;;;;;;25.27;14.73;;;;;;;;;;5092352;28;20048;-63
2022/04/16 06:53:37;;;;;;;24.77;14.67;;;;;;;;;;5103803;28;20039;-63
2022/04/16 06:56:03;;;;;;;24.17;14.60;;;;;;;;;;5112487;28;20035;-63
2022/04/16 06:58:29;;;;;;;25.47;13.40;;;;;;;;;;5112456;28;20045;-63
2022/04/16 07:00:56;;;;;;;22.40;13.33;;;;;;;;;;5110968;28;20039;-63
2022/04/16 07:03:22;;;;;;;22.83;14.60;;;;;;;;;;5112080;28;20052;-64
2022/04/16 07:05:48;;;;;;;22.30;13.57;;;;;;;;;;5112258;28;20100;-63
2022/04/16 07:08:14;;;;;;;22.97;13.50;;;;;;;;;;5094144;28;20509;-63
2022/04/16 07:10:40;;;;;;;23.23;13.53;;;;;;;;;;5112390;28;20081;-63
2022/04/16 07:13:06;;;;;;;21.23;13.10;;;;;;;;;;5105024;28;20071;-63
2022/04/16 07:15:33;;;;;;;22.63;12.70;;;;;;;;;;5109271;28;20039;-63
2022/04/16 07:17:59;;;;;;;19.50;12.33;;;;;;;;;;5112123;28;20052;-64
2022/04/16 07:20:26;;;;;;;21.50;12.47;;;;;;;;;;5106362;28;20074;-64
2022/04/16 07:22:52;;;;;;;19.13;11.77;;;;;;;;;;5076647;28;20110;-63
2022/04/16 07:25:18;;;;;;;20.20;12.53;;;;;;;;;;5090127;28;20044;-63
2022/04/16 07:27:44;;;;;;;19.17;12.13;;;;;;;;;;5093071;28;20032;-64
2022/04/16 07:30:13;;;;;;;17.90;12.07;;;;;;;;;;5101202;28;20048;-64
2022/04/16 07:32:39;;;;;;;16.83;12.07;;;;;;;;;;5099649;28;20047;-64
2022/04/16 07:35:06;;;;;;;20.33;13.33;;;;;;;;;;5099538;28;20040;-65
2022/04/16 07:37:32;;;;;;;15.60;10.93;;;;;;;;;;5100852;28;20052;-64
2022/04/16 07:39:58;;;;;;;20.17;11.57;;;;;;;;;;5098515;28;20078;-64
2022/04/16 07:42:28;;;;;;;19.07;11.70;;;;;;;;;;5098266;28;20067;-64
2022/04/16 07:44:54;;;;;;;19.27;11.90;;;;;;;;;;5101063;28;20063;-65
2022/04/16 07:47:21;;;;;;;17.00;10.77;;;;;;;;;;5098121;28;20068;-64
2022/04/16 07:49:47;;;;;;;19.70;12.17;;;;;;;;;;5095839;28;20045;-64
2022/04/16 07:52:13;;;;;;;16.70;11.67;;;;;;;;;;5099544;28;20047;-65
2022/04/16 07:54:39;;;;;;;17.10;10.83;;;;;;;;;;5097409;28;20108;-64
2022/04/16 07:57:05;;;;;;;16.03;10.20;;;;;;;;;;5097861;28;20040;-64
2022/04/16 07:59:31;;;;;;;16.77;10.33;;;;;;;;;;5097202;28;20032;-64
2022/04/16 08:01:57;;;;;;;16.87;10.73;;;;;;;;;;5100049;28;20052;-64
2022/04/16 08:04:23;;;;;;;17.30;9.93;;;;;;;;;;5098724;28;20051;-64
2022/04/16 08:06:50;;;;;;;14.50;10.63;;;;;;;;;;5105828;28;20405;-63
2022/04/16 08:09:17;;;;;;;17.47;10.77;;;;;;;;;;5097238;28;20048;-63
2022/04/16 08:11:45;;;;;;;19.03;11.07;;;;;;;;;;5090388;28;20048;-63
2022/04/16 08:14:12;;;;;;;17.20;10.13;;;;;;;;;;5105101;28;20464;-63
2022/04/16 08:16:38;;;;;;;14.87;9.47;;;;;;;;;;5105038;28;20115;-64
2022/04/16 08:19:04;;;;;;;14.47;9.37;;;;;;;;;;5097980;28;20044;-63
2022/04/16 08:21:32;;;;;;;13.83;8.10;;;;;;;;;;5097523;28;20048;-64
2022/04/16 08:24:12;;;;;;;14.93;8.83;;;;;;;;;;5095759;28;20433;-64
2022/04/16 08:26:39;;;;;;;12.37;7.33;;;;;;;;;;5095696;28;20092;-63
2022/04/16 08:29:05;;;;;;;11.27;6.60;;;;;;;;;;5097574;28;20102;-63
2022/04/16 08:31:31;;;;;;;10.37;6.90;;;;;;;;;;5099570;28;20487;-63
2022/04/16 08:33:57;;;;;;;11.60;7.20;;;;;;;;;;5101142;28;20044;-64
2022/04/16 08:36:23;;;;;;;10.80;6.53;;;;;;;;;;5094113;28;20048;-63
2022/04/16 08:38:49;;;;;;;9.53;6.40;;;;;;;;;;5095036;28;20104;-63
2022/04/16 08:41:15;;;;;;;11.13;6.40;;;;;;;;;;5094931;28;20052;-63
2022/04/16 08:43:42;;;;;;;9.60;6.03;;;;;;;;;;5099283;28;20126;-64
2022/04/16 08:46:08;;;;;;;8.97;5.03;;;;;;;;;;5097387;28;20079;-63
2022/04/16 08:48:34;;;;;;;9.80;6.13;;;;;;;;;;5096584;28;20043;-63
2022/04/16 08:51:00;;;;;;;9.30;5.97;;;;;;;;;;5094360;28;20044;-64
2022/04/16 08:53:26;;;;;;;9.77;6.20;;;;;;;;;;5100352;28;20048;-63
2022/04/16 08:55:52;;;;;;;9.93;6.57;;;;;;;;;;5088200;28;20125;-62
2022/04/16 08:58:18;;;;;;;10.50;5.93;;;;;;;;;;5098262;28;20066;-62
2022/04/16 09:00:44;;;;;;;9.40;6.17;;;;;;;;;;5098115;28;20511;-62
2022/04/16 09:03:10;;;;;;;9.20;6.03;;;;;;;;;;5099107;28;20071;-62
2022/04/16 09:05:37;;;;;;;8.57;5.40;;;;;;;;;;5096896;28;20089;-62
2022/04/16 09:08:07;;;;;;;9.83;5.07;;;;;;;;;;5097680;28;20074;-63
2022/04/16 09:10:36;;;;;;;8.00;4.80;;;;;;;;;;5103515;28;20047;-62
2022/04/16 09:13:04;;;;;;;8.47;3.60;;;;;;;;;;5093907;28;20087;-63
2022/04/16 09:15:31;;;;;;;6.43;2.67;;;;;;;;;;5088380;28;20097;-62
2022/04/16 09:17:59;;;;;;;5.43;3.30;;;;;;;;;;5096530;28;20097;-63
2022/04/16 09:20:30;;;;;;;4.07;2.40;;;;;;;;;;5096203;28;20482;-62
2022/04/16 09:22:56;;;;;;;4.67;3.33;;;;;;;;;;5096463;28;20044;-62
2022/04/16 09:25:22;;;;;;;6.10;3.27;;;;;;;;;;5094038;28;20092;-62
2022/04/16 09:27:49;;;;;;;5.43;2.87;;;;;;;;;;5096671;28;20074;-62
2022/04/16 09:30:30;;;;;;;4.20;2.27;;;;;;;;;;5081508;28;20044;-62
2022/04/16 09:32:57;;;;;;;6.47;2.40;;;;;;;;;;5088645;28;20127;-62
2022/04/16 09:35:35;;;;;;;5.17;2.30;;;;;;;;;;5089712;28;20032;-62
2022/04/16 09:38:02;;;;;;;4.80;2.40;;;;;;;;;;5096955;28;20067;-62
2022/04/16 09:40:30;;;;;;;4.67;2.80;;;;;;;;;;5106823;28;20090;-63
2022/04/16 09:42:57;;;;;;;4.63;2.10;;;;;;;;;;5098726;28;20564;-62
2022/04/16 09:45:23;;;;;;;4.13;2.13;;;;;;;;;;5101710;28;20038;-62
2022/04/16 09:47:50;;;;;;;6.03;2.67;;;;;;;;;;5088786;28;20119;-62
2022/04/16 09:50:21;;;;;;;3.70;2.00;;;;;;;;;;5088995;28;20058;-62
2022/04/16 09:52:51;;;;;;;3.37;2.00;;;;;;;;;;5088847;28;20067;-62
2022/04/16 09:55:19;;;;;;;4.23;2.13;;;;;;;;;;5092690;28;20043;-62
2022/04/16 09:57:47;;;;;;;3.50;1.73;;;;;;;;;;5098030;28;20044;-62
2022/04/16 10:00:14;;;;;;;2.97;1.80;;;;;;;;;;5097240;28;20059;-62
2022/04/16 10:02:41;;;;;;;4.73;2.17;;;;;;;;;;5103585;28;20492;-62
2022/04/16 10:05:09;;;;;;;4.97;1.73;;;;;;;;;;5096720;28;20044;-62
2022/04/16 10:07:36;;;;;;;4.57;2.00;;;;;;;;;;5089242;28;20490;-62
2022/04/16 10:10:06;;;;;;;4.47;1.70;;;;;;;;;;5070774;28;20055;-62
2022/04/16 10:15:21;;;;;;;2.63;1.60;;;;;;;;;;5107602;28;20044;-62
2022/04/16 10:17:50;;;;;;;4.37;1.60;;;;;;;;;;5109660;28;20046;-63
2022/04/16 10:20:16;;;;;;;4.33;1.80;;;;;;;;;;5096087;28;20411;-62
2022/04/16 10:22:53;;;;;;;3.87;2.20;;;;;;;;;;5088298;28;20051;-62
2022/04/16 10:25:27;;;;;;;2.40;1.10;;;;;;;;;;5092817;28;20084;-62
2022/04/16 10:28:00;;;;;;;2.00;1.00;;;;;;;;;;5092567;28;20040;-62
2022/04/16 10:30:35;;;;;;;3.63;1.38;;;;;;;;;;5100521;28;20052;-62
2022/04/16 10:33:03;;;;;;;5.00;2.13;;;;;;;;;;5098394;28;20142;-62
2022/04/16 10:35:29;;;;;;;2.53;1.20;;;;;;;;;;5100525;28;20040;-63
2022/04/16 10:37:55;;;;;;;2.23;1.00;;;;;;;;;;5103969;28;20056;-62
2022/04/16 10:40:23;;;;;;;5.20;1.33;;;;;;;;;;5103431;28;20044;-62
2022/04/16 10:42:51;;;;;;;2.07;1.10;;;;;;;;;;5110197;28;20115;-62
2022/04/16 10:45:17;;;;;;;1.83;0.97;;;;;;;;;;5095536;28;20524;-62
2022/04/16 10:47:44;;;;;;;2.43;1.20;;;;;;;;;;5092333;28;20044;-62
2022/04/16 10:50:13;;;;;;;4.13;1.30;;;;;;;;;;5097023;28;20048;-63
2022/04/16 10:52:39;;;;;;;3.60;1.27;;;;;;;;;;5093087;28;20056;-62
2022/04/16 10:55:06;;;;;;;2.27;1.10;;;;;;;;;;5090390;28;20112;-62
2022/04/16 10:57:32;;;;;;;5.03;1.13;;;;;;;;;;5092216;28;20051;-62
2022/04/16 10:59:58;;;;;;;2.20;1.00;;;;;;;;;;5111783;28;20405;-63
2022/04/16 11:02:30;;;;;;;2.70;1.30;;;;;;;;;;5111428;28;20100;-62
2022/04/16 11:05:05;;;;;;;4.43;1.20;;;;;;;;;;5112688;28;20044;-62
2022/04/16 11:07:35;;;;;;;2.37;1.47;;;;;;;;;;5109481;28;20417;-62
2022/04/16 11:10:01;;;;;;;3.57;1.10;;;;;;;;;;5111988;28;20054;-62
2022/04/16 11:12:29;;;;;;;5.20;0.90;;;;;;;;;;5110799;28;20040;-62
2022/04/16 11:14:55;;;;;;;2.60;1.33;;;;;;;;;;5111939;28;20052;-62
2022/04/16 11:17:21;;;;;;;2.10;1.20;;;;;;;;;;5095583;28;20055;-63
2022/04/16 11:19:58;;;;;;;2.20;1.00;;;;;;;;;;5091702;28;20036;-63
2022/04/16 11:22:25;;;;;;;2.17;1.27;;;;;;;;;;5106237;28;20047;-62
2022/04/16 11:24:51;;;;;;;2.83;1.20;;;;;;;;;;5111850;28;20048;-62
2022/04/16 11:35:54;;;;;;;1.77;0.90;;;;;;;;;;5092788;28;20055;-62
2022/04/16 11:38:28;;;;;;;4.20;1.20;;;;;;;;;;5091146;28;20071;-63
2022/04/16 11:40:55;;;;;;;2.67;1.17;;;;;;;;;;5109694;28;20598;-62
2022/04/16 11:43:24;;;;;;;2.23;1.20;;;;;;;;;;5091498;28;20161;-63
2022/04/16 11:45:51;;;;;;;4.77;1.30;;;;;;;;;;5091242;28;20058;-62
2022/04/16 11:48:17;;;;;;;3.20;1.20;;;;;;;;;;5108657;28;20109;-62
2022/04/16 11:50:44;;;;;;;2.07;0.90;;;;;;;;;;5111723;28;20374;-62
2022/04/16 11:53:13;;;;;;;1.88;0.95;;;;;;;;;;5092465;28;20051;-62
2022/04/16 11:55:52;;;;;;;2.70;1.00;;;;;;;;;;5090582;28;20502;-63
2022/04/16 11:58:18;;;;;;;2.63;1.00;;;;;;;;;;5094301;28;20059;-62
2022/04/16 12:00:57;;;;;;;3.07;0.97;;;;;;;;;;5090770;28;20050;-62
2022/04/16 12:03:23;;;;;;;3.38;1.20;;;;;;;;;;5101191;28;20100;-62
2022/04/16 12:05:50;;;;;;;2.60;1.00;;;;;;;;;;5095170;28;20079;-64
2022/04/16 12:08:20;;;;;;;2.53;1.05;;;;;;;;;;5089754;28;20191;-62
2022/04/16 12:10:46;;;;;;;2.33;0.90;;;;;;;;;;5091143;28;20055;-64
2022/04/16 12:13:13;;;;;;;2.40;1.33;;;;;;;;;;5104218;28;20497;-62
2022/04/16 12:15:41;;;;;;;6.85;0.90;;;;;;;;;;5110638;28;20501;-63
2022/04/16 12:18:30;;;;;;;5.78;1.00;;;;;;;;;;5109810;28;20050;-63
2022/04/16 12:21:05;;;;;;;2.90;1.00;;;;;;;;;;5109971;28;20051;-63
2022/04/16 12:23:31;;;;;;;1.95;0.98;;;;;;;;;;5091359;28;20052;-63
2022/04/16 12:26:05;;;;;;;4.32;1.35;;;;;;;;;;5101738;28;20605;-62
2022/04/16 12:28:38;;;;;;;2.05;0.98;;;;;;;;;;5094027;28;20044;-63
2022/04/16 12:31:04;;;;;;;2.80;1.38;;;;;;;;;;5089831;28;20074;-62
2022/04/16 12:33:30;;;;;;;2.00;1.00;;;;;;;;;;5090040;28;20044;-63
2022/04/16 12:35:58;;;;;;;1.88;0.90;;;;;;;;;;5090037;28;20044;-62
2022/04/16 12:38:25;;;;;;;1.58;0.90;;;;;;;;;;5099407;28;20052;-63
2022/04/16 12:40:52;;;;;;;2.75;1.00;;;;;;;;;;5110493;28;20687;-63
2022/04/16 12:43:18;;;;;;;2.30;1.10;;;;;;;;;;5109074;28;20103;-62
2022/04/16 12:45:44;;;;;;;2.35;0.95;;;;;;;;;;5109747;28;20047;-63
2022/04/16 12:48:10;;;;;;;1.75;0.90;;;;;;;;;;5100559;28;20043;-63
2022/04/16 12:50:37;;;;;;;2.13;1.08;;;;;;;;;;5089817;28;20426;-63
2022/04/16 12:53:06;;;;;;;4.10;0.93;;;;;;;;;;5099403;28;20075;-63
2022/04/16 12:55:33;;;;;;;1.73;0.82;;;;;;;;;;5074899;28;20481;-63
2022/04/16 12:57:59;;;;;;;3.22;0.98;;;;;;;;;;5109048;28;20070;-63
2022/04/16 13:00:25;;;;;;;1.30;0.70;;;;;;;;;;5108886;28;20485;-62
2022/04/16 13:02:51;;;;;;;2.15;0.90;;;;;;;;;;5099704;28;20130;-62
2022/04/16 13:05:18;;;;;;;2.05;0.90;;;;;;;;;;5089907;28;20040;-62
2022/04/16 13:07:45;;;;;;;2.30;1.02;;;;;;;;;;5089744;28;20063;-62
2022/04/16 13:10:12;;;;;;;4.55;1.20;;;;;;;;;;5108689;28;20052;-62
2022/04/16 13:12:38;;;;;;;1.63;0.82;;;;;;;;;;5110258;28;20039;-62
2022/04/16 13:15:08;;;;;;;1.98;0.80;;;;;;;;;;5095897;28;20520;-62
2022/04/16 13:17:34;;;;;;;2.95;0.80;;;;;;;;;;5109647;28;20051;-63
2022/04/16 13:20:00;;;;;;;3.95;1.13;;;;;;;;;;5100001;28;20055;-63
2022/04/16 13:22:27;;;;;;;2.03;1.10;;;;;;;;;;5089257;28;20083;-63
2022/04/16 13:24:53;;;;;;;5.03;1.10;;;;;;;;;;5088764;28;20438;-63
2022/04/16 13:27:19;;;;;;;2.80;1.30;;;;;;;;;;5088875;28;20081;-63
2022/04/16 13:29:45;;;;;;;2.20;0.95;;;;;;;;;;5088676;28;20058;-63
2022/04/16 13:32:12;;;;;;;2.85;1.02;;;;;;;;;;5095333;28;20040;-62
2022/04/16 13:34:39;;;;;;;2.42;1.10;;;;;;;;;;5108555;28;20044;-63
2022/04/16 13:37:06;;;;;;;2.08;1.02;;;;;;;;;;5109318;28;20047;-63
2022/04/16 13:42:17;;;;;;;1.92;0.90;;;;;;;;;;5109216;28;20083;-63
2022/04/16 13:44:43;;;;;;;2.15;1.10;;;;;;;;;;5090680;28;20524;-63
2022/04/16 13:47:09;;;;;;;2.05;1.00;;;;;;;;;;5088994;28;20083;-63
2022/04/16 13:49:35;;;;;;;1.92;1.10;;;;;;;;;;5095197;28;20043;-63
2022/04/16 13:52:01;;;;;;;2.83;1.13;;;;;;;;;;5097475;28;20071;-63
2022/04/16 13:54:27;;;;;;;2.47;0.90;;;;;;;;;;5101017;28;20480;-63
2022/04/16 13:56:53;;;;;;;1.70;1.00;;;;;;;;;;5100539;28;20054;-63
2022/04/16 13:59:19;;;;;;;2.00;1.00;;;;;;;;;;5090244;28;20777;-63
2022/04/16 14:01:50;;;;;;;3.50;1.17;;;;;;;;;;5100276;28;20171;-63
2022/04/16 14:04:16;;;;;;;2.42;1.30;;;;;;;;;;5096075;28;20079;-63
2022/04/16 14:06:42;;;;;;;3.00;1.30;;;;;;;;;;5097533;28;20542;-63
2022/04/16 14:09:08;;;;;;;2.70;1.10;;;;;;;;;;5097335;28;20050;-63
2022/04/16 14:11:34;;;;;;;3.05;0.90;;;;;;;;;;5096729;28;20036;-63
2022/04/16 14:14:01;;;;;;;2.35;1.10;;;;;;;;;;5098600;28;20044;-63
2022/04/16 14:16:27;;;;;;;3.75;1.02;;;;;;;;;;5099308;28;20036;-63
2022/04/16 14:18:53;;;;;;;2.15;1.02;;;;;;;;;;5097226;28;20070;-63
2022/04/16 14:21:19;;;;;;;4.68;1.65;;;;;;;;;;5096835;28;20126;-63
2022/04/16 14:23:45;;;;;;;2.20;0.90;;;;;;;;;;5102924;28;20044;-63
2022/04/16 14:26:12;;;;;;;3.20;1.02;;;;;;;;;;5100610;28;20394;-63
2022/04/16 14:28:39;;;;;;;4.03;1.05;;;;;;;;;;5095923;28;20060;-63
2022/04/16 14:31:05;;;;;;;3.88;1.17;;;;;;;;;;5098509;28;20124;-63
2022/04/16 14:33:35;;;;;;;5.28;1.63;;;;;;;;;;5097141;28;20075;-63
2022/04/16 14:36:04;;;;;;;3.65;1.10;;;;;;;;;;5093676;28;20122;-63
2022/04/16 14:38:33;;;;;;;4.38;1.20;;;;;;;;;;5095521;28;20044;-63
2022/04/16 14:41:11;;;;;;;3.63;1.02;;;;;;;;;;5095091;28;20101;-63
2022/04/16 14:43:40;;;;;;;2.80;1.00;;;;;;;;;;5105324;28;20069;-63
2022/04/16 14:46:06;;;;;;;2.10;0.98;;;;;;;;;;5081309;28;20043;-63
2022/04/16 14:48:32;;;;;;;2.03;0.80;;;;;;;;;;5095628;28;20044;-63
2022/04/16 14:51:01;;;;;;;4.03;1.00;;;;;;;;;;5095978;28;20096;-63
2022/04/16 14:53:27;;;;;;;3.25;1.10;;;;;;;;;;5097525;28;20505;-63